sensor_id;sensor_type;location;lat;lon;timestamp;temperature;humidity
13673;DHT22;6909;52.202;9.876;2024-02-21T00:01:35;8.20;1.00
13673;DHT22;6909;52.202;9.876;2024-02-21T00:04:02;8.20;1.00
13673;DHT22;6909;52.202;9.876;2024-02-21T00:06:29;8.30;1.00
13673;DHT22;6909;52.202;9.876;2024-02-21T00:08:57;8.30;1.00
13673;DHT22;6909;52.202;9.876;2024-02-21T00:11:24;8.30;1.00
13673;DHT22;6909;52.202;9.876;2024-02-21T00:13:51;8.30;1.00
13673;DHT22;6909;52.202;9.876;2024-02-21T00:16:19;8.30;1.00
13673;DHT22;6909;52.202;9.876;2024-02-21T00:18:46;8.30;1.00
13673;DHT22;6909;52.202;9.876;2024-02-21T00:21:14;8.30;1.00
13673;DHT22;6909;52.202;9.876;2024-02-21T00:23:46;8.30;99.90
13673;DHT22;6909;52.202;9.876;2024-02-21T00:26:16;8.30;99.90
13673;DHT22;6909;52.202;9.876;2024-02-21T00:28:43;8.20;1.00
13673;DHT22;6909;52.202;9.876;2024-02-21T00:31:11;8.20;79.50
13673;DHT22;6909;52.202;9.876;2024-02-21T00:33:38;8.30;1.00
13673;DHT22;6909;52.202;9.876;2024-02-21T00:36:05;8.30;1.00
13673;DHT22;6909;52.202;9.876;2024-02-21T00:38:32;8.30;99.90
13673;DHT22;6909;52.202;9.876;2024-02-21T00:41:07;8.30;1.00
13673;DHT22;6909;52.202;9.876;2024-02-21T00:43:39;8.20;1.00
13673;DHT22;6909;52.202;9.876;2024-02-21T00:46:06;8.30;1.00
13673;DHT22;6909;52.202;9.876;2024-02-21T00:48:33;8.30;1.00
13673;DHT22;6909;52.202;9.876;2024-02-21T00:50:59;8.30;1.00
13673;DHT22;6909;52.202;9.876;2024-02-21T00:53:26;8.30;1.00
13673;DHT22;6909;52.202;9.876;2024-02-21T00:55:53;8.30;1.00
13673;DHT22;6909;52.202;9.876;2024-02-21T00:58:19;8.30;1.00
13673;DHT22;6909;52.202;9.876;2024-02-21T01:00:47;8.30;99.90
13673;DHT22;6909;52.202;9.876;2024-02-21T01:03:14;8.30;99.90
13673;DHT22;6909;52.202;9.876;2024-02-21T01:05:40;8.30;99.90
13673;DHT22;6909;52.202;9.876;2024-02-21T01:08:07;8.30;1.00
13673;DHT22;6909;52.202;9.876;2024-02-21T01:10:34;8.30;1.00
13673;DHT22;6909;52.202;9.876;2024-02-21T01:13:00;8.30;1.00
13673;DHT22;6909;52.202;9.876;2024-02-21T01:15:27;8.30;1.00
13673;DHT22;6909;52.202;9.876;2024-02-21T01:17:55;8.30;99.90
13673;DHT22;6909;52.202;9.876;2024-02-21T01:20:22;8.30;1.00
13673;DHT22;6909;52.202;9.876;2024-02-21T01:22:48;8.30;1.00
13673;DHT22;6909;52.202;9.876;2024-02-21T01:25:15;8.30;1.00
13673;DHT22;6909;52.202;9.876;2024-02-21T01:27:42;8.30;99.90
13673;DHT22;6909;52.202;9.876;2024-02-21T01:30:09;8.30;1.00
13673;DHT22;6909;52.202;9.876;2024-02-21T01:32:37;8.30;99.90
13673;DHT22;6909;52.202;9.876;2024-02-21T01:35:05;8.30;1.00
13673;DHT22;6909;52.202;9.876;2024-02-21T01:37:32;8.30;1.00
13673;DHT22;6909;52.202;9.876;2024-02-21T01:39:59;8.30;1.00
13673;DHT22;6909;52.202;9.876;2024-02-21T01:42:25;8.30;1.00
13673;DHT22;6909;52.202;9.876;2024-02-21T01:44:52;8.40;1.00
13673;DHT22;6909;52.202;9.876;2024-02-21T01:47:21;8.30;1.00
13673;DHT22;6909;52.202;9.876;2024-02-21T01:49:48;8.40;99.90
13673;DHT22;6909;52.202;9.876;2024-02-21T01:52:17;8.40;99.90
13673;DHT22;6909;52.202;9.876;2024-02-21T01:54:47;8.40;99.90
13673;DHT22;6909;52.202;9.876;2024-02-21T01:57:14;8.40;1.00
13673;DHT22;6909;52.202;9.876;2024-02-21T01:59:41;8.40;99.90
13673;DHT22;6909;52.202;9.876;2024-02-21T02:02:07;8.40;99.90
13673;DHT22;6909;52.202;9.876;2024-02-21T02:04:34;8.30;1.00
13673;DHT22;6909;52.202;9.876;2024-02-21T02:07:02;8.40;99.80
13673;DHT22;6909;52.202;9.876;2024-02-21T02:09:31;8.30;99.90
13673;DHT22;6909;52.202;9.876;2024-02-21T02:11:58;8.40;1.00
13673;DHT22;6909;52.202;9.876;2024-02-21T02:14:25;8.40;99.90
13673;DHT22;6909;52.202;9.876;2024-02-21T02:16:51;8.50;1.00
13673;DHT22;6909;52.202;9.876;2024-02-21T02:19:18;8.50;1.00
13673;DHT22;6909;52.202;9.876;2024-02-21T02:21:48;8.50;1.00
13673;DHT22;6909;52.202;9.876;2024-02-21T02:24:34;8.50;1.00
13673;DHT22;6909;52.202;9.876;2024-02-21T02:27:01;8.50;13.60
13673;DHT22;6909;52.202;9.876;2024-02-21T02:29:27;8.40;99.90
13673;DHT22;6909;52.202;9.876;2024-02-21T02:31:54;8.40;99.90
13673;DHT22;6909;52.202;9.876;2024-02-21T02:34:21;8.40;99.90
13673;DHT22;6909;52.202;9.876;2024-02-21T02:36:47;8.40;99.90
13673;DHT22;6909;52.202;9.876;2024-02-21T02:39:14;8.40;1.00
13673;DHT22;6909;52.202;9.876;2024-02-21T02:41:42;8.40;99.90
13673;DHT22;6909;52.202;9.876;2024-02-21T02:44:09;8.40;59.10
13673;DHT22;6909;52.202;9.876;2024-02-21T02:46:36;8.40;1.00
13673;DHT22;6909;52.202;9.876;2024-02-21T02:49:02;8.50;1.00
13673;DHT22;6909;52.202;9.876;2024-02-21T02:51:29;8.40;1.00
13673;DHT22;6909;52.202;9.876;2024-02-21T02:53:55;8.50;1.00
13673;DHT22;6909;52.202;9.876;2024-02-21T02:56:24;8.40;1.00
13673;DHT22;6909;52.202;9.876;2024-02-21T02:58:52;8.40;1.00
13673;DHT22;6909;52.202;9.876;2024-02-21T03:01:18;8.40;1.00
13673;DHT22;6909;52.202;9.876;2024-02-21T03:03:45;8.40;99.90
13673;DHT22;6909;52.202;9.876;2024-02-21T03:06:12;8.40;99.90
13673;DHT22;6909;52.202;9.876;2024-02-21T03:08:39;8.40;27.30
13673;DHT22;6909;52.202;9.876;2024-02-21T03:11:06;8.50;1.00
13673;DHT22;6909;52.202;9.876;2024-02-21T03:13:34;8.50;18.20
13673;DHT22;6909;52.202;9.876;2024-02-21T03:16:02;8.50;1.00
13673;DHT22;6909;52.202;9.876;2024-02-21T03:18:28;8.50;1.00
13673;DHT22;6909;52.202;9.876;2024-02-21T03:20:55;8.50;99.90
13673;DHT22;6909;52.202;9.876;2024-02-21T03:23:22;8.60;1.00
13673;DHT22;6909;52.202;9.876;2024-02-21T03:25:48;8.60;1.00
13673;DHT22;6909;52.202;9.876;2024-02-21T03:28:16;8.60;1.00
13673;DHT22;6909;52.202;9.876;2024-02-21T03:30:42;8.60;99.90
13673;DHT22;6909;52.202;9.876;2024-02-21T03:33:10;8.60;93.60
13673;DHT22;6909;52.202;9.876;2024-02-21T03:35:37;8.60;1.00
13673;DHT22;6909;52.202;9.876;2024-02-21T03:38:04;8.70;1.00
13673;DHT22;6909;52.202;9.876;2024-02-21T03:40:30;8.70;1.00
13673;DHT22;6909;52.202;9.876;2024-02-21T03:42:57;8.70;1.00
13673;DHT22;6909;52.202;9.876;2024-02-21T03:45:23;8.70;1.00
13673;DHT22;6909;52.202;9.876;2024-02-21T03:47:50;8.60;1.00
13673;DHT22;6909;52.202;9.876;2024-02-21T03:50:18;8.60;1.00
13673;DHT22;6909;52.202;9.876;2024-02-21T03:52:45;8.60;1.00
13673;DHT22;6909;52.202;9.876;2024-02-21T03:55:11;8.50;1.00
13673;DHT22;6909;52.202;9.876;2024-02-21T03:57:38;8.60;1.00
13673;DHT22;6909;52.202;9.876;2024-02-21T04:00:06;8.50;1.00
13673;DHT22;6909;52.202;9.876;2024-02-21T04:02:36;8.50;1.00
13673;DHT22;6909;52.202;9.876;2024-02-21T04:05:03;8.50;1.00
13673;DHT22;6909;52.202;9.876;2024-02-21T04:07:31;8.50;99.90
13673;DHT22;6909;52.202;9.876;2024-02-21T04:09:58;8.40;99.90
13673;DHT22;6909;52.202;9.876;2024-02-21T04:12:24;8.50;15.60
13673;DHT22;6909;52.202;9.876;2024-02-21T04:14:51;8.40;99.90
13673;DHT22;6909;52.202;9.876;2024-02-21T04:17:18;8.40;99.90
13673;DHT22;6909;52.202;9.876;2024-02-21T04:19:44;8.40;53.10
13673;DHT22;6909;52.202;9.876;2024-02-21T04:22:11;8.40;1.00
13673;DHT22;6909;52.202;9.876;2024-02-21T04:24:39;8.50;1.00
13673;DHT22;6909;52.202;9.876;2024-02-21T04:27:05;8.50;1.00
13673;DHT22;6909;52.202;9.876;2024-02-21T04:29:32;8.50;1.00
13673;DHT22;6909;52.202;9.876;2024-02-21T04:32:02;8.40;1.00
13673;DHT22;6909;52.202;9.876;2024-02-21T04:34:30;8.40;63.70
13673;DHT22;6909;52.202;9.876;2024-02-21T04:36:56;8.40;1.00
13673;DHT22;6909;52.202;9.876;2024-02-21T04:39:23;8.50;1.00
13673;DHT22;6909;52.202;9.876;2024-02-21T04:41:51;8.50;1.00
13673;DHT22;6909;52.202;9.876;2024-02-21T04:44:18;8.50;1.00
13673;DHT22;6909;52.202;9.876;2024-02-21T04:46:47;8.50;1.00
13673;DHT22;6909;52.202;9.876;2024-02-21T04:49:13;8.50;1.00
13673;DHT22;6909;52.202;9.876;2024-02-21T04:51:40;8.50;1.00
13673;DHT22;6909;52.202;9.876;2024-02-21T04:54:07;8.50;1.00
13673;DHT22;6909;52.202;9.876;2024-02-21T04:56:34;8.50;1.00
13673;DHT22;6909;52.202;9.876;2024-02-21T04:59:02;8.50;1.00
13673;DHT22;6909;52.202;9.876;2024-02-21T05:01:29;8.50;1.00
13673;DHT22;6909;52.202;9.876;2024-02-21T05:03:56;8.60;1.00
13673;DHT22;6909;52.202;9.876;2024-02-21T05:06:23;8.50;1.00
13673;DHT22;6909;52.202;9.876;2024-02-21T05:08:50;8.50;1.00
13673;DHT22;6909;52.202;9.876;2024-02-21T05:11:16;8.50;1.00
13673;DHT22;6909;52.202;9.876;2024-02-21T05:13:43;8.50;1.00
13673;DHT22;6909;52.202;9.876;2024-02-21T05:16:11;8.50;1.00
13673;DHT22;6909;52.202;9.876;2024-02-21T05:18:38;8.60;1.00
13673;DHT22;6909;52.202;9.876;2024-02-21T05:21:04;8.60;1.00
13673;DHT22;6909;52.202;9.876;2024-02-21T05:23:31;8.60;1.00
13673;DHT22;6909;52.202;9.876;2024-02-21T05:25:57;8.60;99.90
13673;DHT22;6909;52.202;9.876;2024-02-21T05:28:24;8.60;99.90
13673;DHT22;6909;52.202;9.876;2024-02-21T05:30:51;8.60;99.90
13673;DHT22;6909;52.202;9.876;2024-02-21T05:33:19;8.60;99.90
13673;DHT22;6909;52.202;9.876;2024-02-21T05:35:47;8.60;99.90
13673;DHT22;6909;52.202;9.876;2024-02-21T05:38:14;8.70;99.90
13673;DHT22;6909;52.202;9.876;2024-02-21T05:40:41;8.70;99.90
13673;DHT22;6909;52.202;9.876;2024-02-21T05:43:08;8.60;99.90
13673;DHT22;6909;52.202;9.876;2024-02-21T05:45:35;8.60;99.90
13673;DHT22;6909;52.202;9.876;2024-02-21T05:48:03;8.60;99.90
13673;DHT22;6909;52.202;9.876;2024-02-21T05:50:31;8.60;99.90
13673;DHT22;6909;52.202;9.876;2024-02-21T05:52:58;8.60;93.50
13673;DHT22;6909;52.202;9.876;2024-02-21T05:55:25;8.60;48.90
13673;DHT22;6909;52.202;9.876;2024-02-21T05:57:53;8.60;1.00
13673;DHT22;6909;52.202;9.876;2024-02-21T06:00:21;8.60;1.00
13673;DHT22;6909;52.202;9.876;2024-02-21T06:02:48;8.60;1.00
13673;DHT22;6909;52.202;9.876;2024-02-21T06:05:15;8.60;1.00
13673;DHT22;6909;52.202;9.876;2024-02-21T06:07:43;8.60;1.00
13673;DHT22;6909;52.202;9.876;2024-02-21T06:10:10;8.60;91.50
13673;DHT22;6909;52.202;9.876;2024-02-21T06:12:36;8.50;43.60
13673;DHT22;6909;52.202;9.876;2024-02-21T06:15:03;8.60;1.00
13673;DHT22;6909;52.202;9.876;2024-02-21T06:17:30;8.60;18.10
13673;DHT22;6909;52.202;9.876;2024-02-21T06:19:57;8.60;1.00
13673;DHT22;6909;52.202;9.876;2024-02-21T06:22:24;8.50;1.00
13673;DHT22;6909;52.202;9.876;2024-02-21T06:24:52;8.50;1.00
13673;DHT22;6909;52.202;9.876;2024-02-21T06:27:19;8.50;1.00
13673;DHT22;6909;52.202;9.876;2024-02-21T06:29:46;8.50;1.00
13673;DHT22;6909;52.202;9.876;2024-02-21T06:32:13;8.40;65.80
13673;DHT22;6909;52.202;9.876;2024-02-21T06:34:39;8.30;99.90
13673;DHT22;6909;52.202;9.876;2024-02-21T06:37:06;8.20;99.90
13673;DHT22;6909;52.202;9.876;2024-02-21T06:39:34;8.20;1.00
13673;DHT22;6909;52.202;9.876;2024-02-21T06:42:04;8.20;1.00
13673;DHT22;6909;52.202;9.876;2024-02-21T06:44:31;8.20;1.00
13673;DHT22;6909;52.202;9.876;2024-02-21T06:47:01;8.20;1.00
13673;DHT22;6909;52.202;9.876;2024-02-21T06:49:28;8.20;1.00
13673;DHT22;6909;52.202;9.876;2024-02-21T06:51:55;8.20;1.00
13673;DHT22;6909;52.202;9.876;2024-02-21T06:54:21;8.20;1.00
13673;DHT22;6909;52.202;9.876;2024-02-21T06:56:49;8.20;1.00
13673;DHT22;6909;52.202;9.876;2024-02-21T06:59:17;8.30;1.00
13673;DHT22;6909;52.202;9.876;2024-02-21T07:01:45;8.30;1.00
13673;DHT22;6909;52.202;9.876;2024-02-21T07:04:12;8.40;1.00
13673;DHT22;6909;52.202;9.876;2024-02-21T07:06:39;8.40;99.90
13673;DHT22;6909;52.202;9.876;2024-02-21T07:09:06;8.40;99.90
13673;DHT22;6909;52.202;9.876;2024-02-21T07:11:32;8.40;1.00
13673;DHT22;6909;52.202;9.876;2024-02-21T07:13:59;8.50;1.00
13673;DHT22;6909;52.202;9.876;2024-02-21T07:16:27;8.50;1.00
13673;DHT22;6909;52.202;9.876;2024-02-21T07:18:54;8.50;1.00
13673;DHT22;6909;52.202;9.876;2024-02-21T07:21:21;8.50;1.00
13673;DHT22;6909;52.202;9.876;2024-02-21T07:23:48;8.40;1.00
13673;DHT22;6909;52.202;9.876;2024-02-21T07:26:14;8.50;1.00
13673;DHT22;6909;52.202;9.876;2024-02-21T07:31:49;8.60;99.90
13673;DHT22;6909;52.202;9.876;2024-02-21T07:34:17;8.60;1.00
13673;DHT22;6909;52.202;9.876;2024-02-21T07:36:43;8.60;1.00
13673;DHT22;6909;52.202;9.876;2024-02-21T07:39:11;8.70;99.90
13673;DHT22;6909;52.202;9.876;2024-02-21T07:41:37;8.70;1.00
13673;DHT22;6909;52.202;9.876;2024-02-21T07:44:05;8.60;1.00
13673;DHT22;6909;52.202;9.876;2024-02-21T07:46:32;8.60;1.00
13673;DHT22;6909;52.202;9.876;2024-02-21T07:49:00;8.70;1.00
13673;DHT22;6909;52.202;9.876;2024-02-21T07:51:27;8.60;99.90
13673;DHT22;6909;52.202;9.876;2024-02-21T07:53:54;8.70;1.00
13673;DHT22;6909;52.202;9.876;2024-02-21T07:56:21;8.70;1.00
13673;DHT22;6909;52.202;9.876;2024-02-21T07:58:48;8.80;1.00
13673;DHT22;6909;52.202;9.876;2024-02-21T08:01:18;8.70;1.00
13673;DHT22;6909;52.202;9.876;2024-02-21T08:03:45;8.70;1.00
13673;DHT22;6909;52.202;9.876;2024-02-21T08:06:13;8.80;1.00
13673;DHT22;6909;52.202;9.876;2024-02-21T08:08:40;8.80;1.00
13673;DHT22;6909;52.202;9.876;2024-02-21T08:11:07;8.80;99.90
13673;DHT22;6909;52.202;9.876;2024-02-21T08:13:36;8.90;99.90
13673;DHT22;6909;52.202;9.876;2024-02-21T08:16:03;8.80;99.90
13673;DHT22;6909;52.202;9.876;2024-02-21T08:18:30;8.90;99.90
13673;DHT22;6909;52.202;9.876;2024-02-21T08:20:57;8.90;99.90
13673;DHT22;6909;52.202;9.876;2024-02-21T08:23:24;9.00;99.90
13673;DHT22;6909;52.202;9.876;2024-02-21T08:25:51;9.00;99.90
13673;DHT22;6909;52.202;9.876;2024-02-21T08:28:18;9.00;1.00
13673;DHT22;6909;52.202;9.876;2024-02-21T08:30:45;9.00;1.00
13673;DHT22;6909;52.202;9.876;2024-02-21T08:33:14;9.10;1.00
13673;DHT22;6909;52.202;9.876;2024-02-21T08:35:40;9.10;1.00
13673;DHT22;6909;52.202;9.876;2024-02-21T08:38:07;9.20;1.00
13673;DHT22;6909;52.202;9.876;2024-02-21T08:40:35;9.30;99.90
13673;DHT22;6909;52.202;9.876;2024-02-21T08:43:02;9.30;99.90
13673;DHT22;6909;52.202;9.876;2024-02-21T08:45:29;9.30;32.20
13673;DHT22;6909;52.202;9.876;2024-02-21T08:47:56;9.40;27.80
13673;DHT22;6909;52.202;9.876;2024-02-21T08:50:22;9.50;1.00
13673;DHT22;6909;52.202;9.876;2024-02-21T08:52:49;9.50;1.00
13673;DHT22;6909;52.202;9.876;2024-02-21T08:55:15;9.60;1.00
13673;DHT22;6909;52.202;9.876;2024-02-21T08:57:43;9.70;1.00
13673;DHT22;6909;52.202;9.876;2024-02-21T09:00:11;9.90;99.90
13673;DHT22;6909;52.202;9.876;2024-02-21T09:02:40;9.90;99.90
13673;DHT22;6909;52.202;9.876;2024-02-21T09:05:08;10.00;1.00
13673;DHT22;6909;52.202;9.876;2024-02-21T09:07:35;10.10;1.00
13673;DHT22;6909;52.202;9.876;2024-02-21T09:10:02;10.10;1.00
13673;DHT22;6909;52.202;9.876;2024-02-21T09:12:29;10.00;1.00
13673;DHT22;6909;52.202;9.876;2024-02-21T09:14:57;10.00;1.00
13673;DHT22;6909;52.202;9.876;2024-02-21T09:17:23;9.90;1.00
13673;DHT22;6909;52.202;9.876;2024-02-21T09:19:50;9.90;99.90
13673;DHT22;6909;52.202;9.876;2024-02-21T09:22:17;9.90;99.90
13673;DHT22;6909;52.202;9.876;2024-02-21T09:24:43;9.80;99.90
13673;DHT22;6909;52.202;9.876;2024-02-21T09:27:10;9.80;99.90
13673;DHT22;6909;52.202;9.876;2024-02-21T09:29:37;9.80;99.90
13673;DHT22;6909;52.202;9.876;2024-02-21T09:32:06;9.80;99.90
13673;DHT22;6909;52.202;9.876;2024-02-21T09:34:33;9.90;99.90
13673;DHT22;6909;52.202;9.876;2024-02-21T09:36:59;10.00;13.40
13673;DHT22;6909;52.202;9.876;2024-02-21T09:39:26;10.10;1.00
13673;DHT22;6909;52.202;9.876;2024-02-21T09:41:58;10.10;1.00
13673;DHT22;6909;52.202;9.876;2024-02-21T09:44:36;10.20;1.00
13673;DHT22;6909;52.202;9.876;2024-02-21T09:47:09;10.30;1.00
13673;DHT22;6909;52.202;9.876;2024-02-21T09:49:37;10.50;1.00
13673;DHT22;6909;52.202;9.876;2024-02-21T09:52:07;10.50;1.00
13673;DHT22;6909;52.202;9.876;2024-02-21T09:54:34;10.70;1.00
13673;DHT22;6909;52.202;9.876;2024-02-21T09:57:01;10.70;1.00
13673;DHT22;6909;52.202;9.876;2024-02-21T09:59:32;10.90;1.00
13673;DHT22;6909;52.202;9.876;2024-02-21T10:01:59;10.90;1.00
13673;DHT22;6909;52.202;9.876;2024-02-21T10:04:28;11.00;1.00
13673;DHT22;6909;52.202;9.876;2024-02-21T10:06:55;11.00;99.90
13673;DHT22;6909;52.202;9.876;2024-02-21T10:09:22;11.00;99.90
13673;DHT22;6909;52.202;9.876;2024-02-21T10:11:49;11.10;99.90
13673;DHT22;6909;52.202;9.876;2024-02-21T10:14:17;11.20;99.90
13673;DHT22;6909;52.202;9.876;2024-02-21T10:16:44;11.10;99.90
13673;DHT22;6909;52.202;9.876;2024-02-21T10:19:18;11.10;99.90
13673;DHT22;6909;52.202;9.876;2024-02-21T10:22:01;11.20;92.30
13673;DHT22;6909;52.202;9.876;2024-02-21T10:24:29;11.30;99.90
13673;DHT22;6909;52.202;9.876;2024-02-21T10:27:02;11.30;19.10
13673;DHT22;6909;52.202;9.876;2024-02-21T10:29:29;11.40;53.40
13673;DHT22;6909;52.202;9.876;2024-02-21T10:32:04;11.40;8.70
13673;DHT22;6909;52.202;9.876;2024-02-21T10:34:33;11.50;46.90
13673;DHT22;6909;52.202;9.876;2024-02-21T10:37:02;11.60;1.00
13673;DHT22;6909;52.202;9.876;2024-02-21T10:39:29;11.70;1.00
13673;DHT22;6909;52.202;9.876;2024-02-21T10:41:56;11.90;1.00
13673;DHT22;6909;52.202;9.876;2024-02-21T10:44:26;11.80;99.90
13673;DHT22;6909;52.202;9.876;2024-02-21T10:46:55;11.80;1.00
13673;DHT22;6909;52.202;9.876;2024-02-21T10:49:23;11.60;1.00
13673;DHT22;6909;52.202;9.876;2024-02-21T10:51:55;11.50;22.40
13673;DHT22;6909;52.202;9.876;2024-02-21T10:54:39;11.50;1.00
13673;DHT22;6909;52.202;9.876;2024-02-21T10:57:06;11.30;1.00
13673;DHT22;6909;52.202;9.876;2024-02-21T10:59:36;11.30;1.00
13673;DHT22;6909;52.202;9.876;2024-02-21T11:02:03;11.60;1.00
13673;DHT22;6909;52.202;9.876;2024-02-21T11:04:32;11.70;1.00
13673;DHT22;6909;52.202;9.876;2024-02-21T11:07:01;11.70;1.00
13673;DHT22;6909;52.202;9.876;2024-02-21T11:09:33;11.50;1.00
13673;DHT22;6909;52.202;9.876;2024-02-21T11:12:02;11.40;1.00
13673;DHT22;6909;52.202;9.876;2024-02-21T11:14:30;11.40;1.00
13673;DHT22;6909;52.202;9.876;2024-02-21T11:16:58;11.40;1.00
13673;DHT22;6909;52.202;9.876;2024-02-21T11:19:26;11.70;34.10
13673;DHT22;6909;52.202;9.876;2024-02-21T11:21:54;12.10;50.00
13673;DHT22;6909;52.202;9.876;2024-02-21T11:24:28;12.00;1.00
13673;DHT22;6909;52.202;9.876;2024-02-21T11:26:56;11.90;1.00
13673;DHT22;6909;52.202;9.876;2024-02-21T11:29:23;12.10;1.00
13673;DHT22;6909;52.202;9.876;2024-02-21T11:31:51;12.00;1.00
13673;DHT22;6909;52.202;9.876;2024-02-21T11:34:19;12.10;1.00
13673;DHT22;6909;52.202;9.876;2024-02-21T11:36:47;12.00;1.00
13673;DHT22;6909;52.202;9.876;2024-02-21T11:39:18;12.10;1.00
13673;DHT22;6909;52.202;9.876;2024-02-21T11:41:46;12.10;99.90
13673;DHT22;6909;52.202;9.876;2024-02-21T11:44:15;12.20;1.00
13673;DHT22;6909;52.202;9.876;2024-02-21T11:46:41;12.20;1.00
13673;DHT22;6909;52.202;9.876;2024-02-21T11:49:08;12.10;1.00
13673;DHT22;6909;52.202;9.876;2024-02-21T11:51:35;12.00;1.00
13673;DHT22;6909;52.202;9.876;2024-02-21T11:54:02;11.90;1.00
13673;DHT22;6909;52.202;9.876;2024-02-21T11:56:34;11.90;99.90
13673;DHT22;6909;52.202;9.876;2024-02-21T11:59:01;11.90;1.00
13673;DHT22;6909;52.202;9.876;2024-02-21T12:01:29;12.00;1.00
13673;DHT22;6909;52.202;9.876;2024-02-21T12:03:56;12.00;99.90
13673;DHT22;6909;52.202;9.876;2024-02-21T12:06:22;12.10;1.00
13673;DHT22;6909;52.202;9.876;2024-02-21T12:08:49;12.10;99.90
13673;DHT22;6909;52.202;9.876;2024-02-21T12:11:20;12.10;1.00
13673;DHT22;6909;52.202;9.876;2024-02-21T12:13:47;12.30;1.00
13673;DHT22;6909;52.202;9.876;2024-02-21T12:16:15;12.00;99.90
13673;DHT22;6909;52.202;9.876;2024-02-21T12:18:44;12.10;99.90
13673;DHT22;6909;52.202;9.876;2024-02-21T12:21:11;12.10;1.00
13673;DHT22;6909;52.202;9.876;2024-02-21T12:23:38;12.10;1.00
13673;DHT22;6909;52.202;9.876;2024-02-21T12:26:05;12.10;1.00
13673;DHT22;6909;52.202;9.876;2024-02-21T12:28:32;12.10;85.00
13673;DHT22;6909;52.202;9.876;2024-02-21T12:30:59;12.10;99.90
13673;DHT22;6909;52.202;9.876;2024-02-21T12:33:25;12.20;1.00
13673;DHT22;6909;52.202;9.876;2024-02-21T12:35:54;12.20;99.90
13673;DHT22;6909;52.202;9.876;2024-02-21T12:38:21;12.30;99.90
13673;DHT22;6909;52.202;9.876;2024-02-21T12:40:47;12.20;1.00
13673;DHT22;6909;52.202;9.876;2024-02-21T12:43:15;12.20;1.00
13673;DHT22;6909;52.202;9.876;2024-02-21T12:45:41;12.00;1.00
13673;DHT22;6909;52.202;9.876;2024-02-21T12:48:08;11.90;1.00
13673;DHT22;6909;52.202;9.876;2024-02-21T12:50:35;11.80;1.00
13673;DHT22;6909;52.202;9.876;2024-02-21T12:53:03;11.80;99.90
13673;DHT22;6909;52.202;9.876;2024-02-21T12:55:30;11.90;99.90
13673;DHT22;6909;52.202;9.876;2024-02-21T12:57:56;11.90;1.00
13673;DHT22;6909;52.202;9.876;2024-02-21T13:00:23;12.00;1.00
13673;DHT22;6909;52.202;9.876;2024-02-21T13:02:53;12.00;1.00
13673;DHT22;6909;52.202;9.876;2024-02-21T13:05:19;11.90;1.00
13673;DHT22;6909;52.202;9.876;2024-02-21T13:07:46;11.90;1.00
13673;DHT22;6909;52.202;9.876;2024-02-21T13:10:15;11.80;1.00
13673;DHT22;6909;52.202;9.876;2024-02-21T13:12:42;11.90;1.00
13673;DHT22;6909;52.202;9.876;2024-02-21T13:15:10;12.00;1.00
13673;DHT22;6909;52.202;9.876;2024-02-21T13:17:37;12.10;1.00
13673;DHT22;6909;52.202;9.876;2024-02-21T13:20:05;12.30;1.00
13673;DHT22;6909;52.202;9.876;2024-02-21T13:22:33;12.30;1.00
13673;DHT22;6909;52.202;9.876;2024-02-21T13:25:00;12.30;99.90
13673;DHT22;6909;52.202;9.876;2024-02-21T13:27:28;12.20;1.00
13673;DHT22;6909;52.202;9.876;2024-02-21T13:29:55;12.20;1.00
13673;DHT22;6909;52.202;9.876;2024-02-21T13:32:21;12.00;1.00
13673;DHT22;6909;52.202;9.876;2024-02-21T13:34:48;12.00;1.00
13673;DHT22;6909;52.202;9.876;2024-02-21T13:37:15;12.10;99.90
13673;DHT22;6909;52.202;9.876;2024-02-21T13:39:42;12.20;1.00
13673;DHT22;6909;52.202;9.876;2024-02-21T13:42:09;12.20;99.90
13673;DHT22;6909;52.202;9.876;2024-02-21T13:44:37;12.10;1.00
13673;DHT22;6909;52.202;9.876;2024-02-21T13:47:04;12.10;99.90
13673;DHT22;6909;52.202;9.876;2024-02-21T13:49:33;12.00;99.90
13673;DHT22;6909;52.202;9.876;2024-02-21T13:52:01;12.10;1.00
13673;DHT22;6909;52.202;9.876;2024-02-21T13:54:27;12.00;99.90
13673;DHT22;6909;52.202;9.876;2024-02-21T13:56:54;11.90;99.90
13673;DHT22;6909;52.202;9.876;2024-02-21T13:59:21;11.80;99.90
13673;DHT22;6909;52.202;9.876;2024-02-21T14:01:49;11.80;99.90
13673;DHT22;6909;52.202;9.876;2024-02-21T14:04:16;11.70;1.00
13673;DHT22;6909;52.202;9.876;2024-02-21T14:06:42;11.60;1.00
13673;DHT22;6909;52.202;9.876;2024-02-21T14:09:09;11.50;99.90
13673;DHT22;6909;52.202;9.876;2024-02-21T14:11:36;11.50;28.60
13673;DHT22;6909;52.202;9.876;2024-02-21T14:14:05;11.40;1.00
13673;DHT22;6909;52.202;9.876;2024-02-21T14:16:32;11.40;1.00
13673;DHT22;6909;52.202;9.876;2024-02-21T14:19:00;11.40;1.00
13673;DHT22;6909;52.202;9.876;2024-02-21T14:21:27;11.50;99.90
13673;DHT22;6909;52.202;9.876;2024-02-21T14:23:54;11.50;1.00
13673;DHT22;6909;52.202;9.876;2024-02-21T14:26:22;11.40;1.00
13673;DHT22;6909;52.202;9.876;2024-02-21T14:28:48;11.40;1.00
13673;DHT22;6909;52.202;9.876;2024-02-21T14:31:15;11.30;1.00
13673;DHT22;6909;52.202;9.876;2024-02-21T14:33:42;11.20;1.00
13673;DHT22;6909;52.202;9.876;2024-02-21T14:36:12;11.20;1.00
13673;DHT22;6909;52.202;9.876;2024-02-21T14:38:41;11.20;1.00
13673;DHT22;6909;52.202;9.876;2024-02-21T14:41:08;11.10;1.00
13673;DHT22;6909;52.202;9.876;2024-02-21T14:43:37;10.90;1.00
13673;DHT22;6909;52.202;9.876;2024-02-21T14:46:04;11.00;1.00
13673;DHT22;6909;52.202;9.876;2024-02-21T14:48:31;10.90;1.00
13673;DHT22;6909;52.202;9.876;2024-02-21T14:50:58;10.90;1.00
13673;DHT22;6909;52.202;9.876;2024-02-21T14:53:26;10.80;1.00
13673;DHT22;6909;52.202;9.876;2024-02-21T14:55:53;10.80;1.00
13673;DHT22;6909;52.202;9.876;2024-02-21T14:58:19;10.80;1.00
13673;DHT22;6909;52.202;9.876;2024-02-21T15:00:46;10.70;1.00
13673;DHT22;6909;52.202;9.876;2024-02-21T15:03:13;10.70;1.00
13673;DHT22;6909;52.202;9.876;2024-02-21T15:05:40;10.80;1.00
13673;DHT22;6909;52.202;9.876;2024-02-21T15:08:07;10.70;1.00
13673;DHT22;6909;52.202;9.876;2024-02-21T15:10:37;10.60;1.00
13673;DHT22;6909;52.202;9.876;2024-02-21T15:13:04;10.50;1.00
13673;DHT22;6909;52.202;9.876;2024-02-21T15:15:31;10.50;1.00
13673;DHT22;6909;52.202;9.876;2024-02-21T15:17:57;10.50;1.00
13673;DHT22;6909;52.202;9.876;2024-02-21T15:20:24;10.40;1.00
13673;DHT22;6909;52.202;9.876;2024-02-21T15:22:51;10.30;1.00
13673;DHT22;6909;52.202;9.876;2024-02-21T15:25:18;10.20;1.00
13673;DHT22;6909;52.202;9.876;2024-02-21T15:27:46;10.20;1.00
13673;DHT22;6909;52.202;9.876;2024-02-21T15:30:14;10.10;1.00
13673;DHT22;6909;52.202;9.876;2024-02-21T15:32:40;10.10;1.00
13673;DHT22;6909;52.202;9.876;2024-02-21T15:35:09;10.10;1.00
13673;DHT22;6909;52.202;9.876;2024-02-21T15:37:36;10.10;1.00
13673;DHT22;6909;52.202;9.876;2024-02-21T15:40:04;10.00;1.00
13673;DHT22;6909;52.202;9.876;2024-02-21T15:42:32;10.00;1.00
13673;DHT22;6909;52.202;9.876;2024-02-21T15:45:00;10.00;1.00
13673;DHT22;6909;52.202;9.876;2024-02-21T15:47:30;9.90;1.00
13673;DHT22;6909;52.202;9.876;2024-02-21T15:49:57;9.90;1.00
13673;DHT22;6909;52.202;9.876;2024-02-21T15:52:24;9.80;1.00
13673;DHT22;6909;52.202;9.876;2024-02-21T15:54:51;9.80;1.00
13673;DHT22;6909;52.202;9.876;2024-02-21T15:57:17;9.80;1.00
13673;DHT22;6909;52.202;9.876;2024-02-21T15:59:46;9.70;1.00
13673;DHT22;6909;52.202;9.876;2024-02-21T16:02:15;9.60;1.00
13673;DHT22;6909;52.202;9.876;2024-02-21T16:04:42;9.60;1.00
13673;DHT22;6909;52.202;9.876;2024-02-21T16:07:08;9.50;1.00
13673;DHT22;6909;52.202;9.876;2024-02-21T16:09:35;9.50;1.00
13673;DHT22;6909;52.202;9.876;2024-02-21T16:12:02;9.40;1.00